CheckWX is a tool to help pilots better visualize weather data.  It is not intended as a substitute for an official pre-flight weather briefing.

17:42:20 UTC

KHOB TAF
Lea County Regional Airport
Hobbs, New Mexico, USA
KHOB 201720Z 2018/2118 25017G27KT P6SM SKC FM210300 33014KT P6SM SKC FM211400 32007KT P6SM SKC

Oct-20@
18:00 UTC

Oct-20 @ 18:00 UTC

Oct-21@
03:00 UTC

Oct-21 @ 03:00 UTC

KHOB 201720Z 2018/2118 25017G27KT P6SM SKC
Wind
  • 250° at 17 KTS
  • {Gusting to 27 KTS
Cloud Levels
  • Clear skies

Oct-21@
03:00 UTC

Oct-21 @ 03:00 UTC

Oct-21@
14:00 UTC

Oct-21 @ 14:00 UTC

FM210300 33014KT P6SM SKC

From

From Standard forecast or significant change

Wind
  • 330° at 14 KTS
Cloud Levels
  • Clear skies

Oct-21@
14:00 UTC

Oct-21 @ 14:00 UTC

Oct-21@
18:00 UTC

Oct-21 @ 18:00 UTC

FM211400 32007KT P6SM SKC

From

From Standard forecast or significant change

Wind
  • 320° at 7 KTS
Cloud Levels
  • Clear skies